Аэропорт: Шпаковское. Ставрополь

ICAO: URMT

METAR:
2020-08-12 06:00:00
URMT 120600Z 27005MPS 9999 FEW030 25/12 Q1011 R25/010070 NOSIG RMK QFE720
METAR:
2020-08-12 05:00:00
TAF URMT 120500Z 1206/1215 26005G10MPS 9999 SCT020 BECMG 1207/1209 28007G13MPS SCT030CB PROB40 TEMPO 1212/1215 -TSRA